createdAt,value
2023-02-26T00:02:14.496Z,99.90
2023-02-26T00:05:19.041Z,99.90
2023-02-26T00:08:21.980Z,99.90
2023-02-26T00:11:25.456Z,99.90
2023-02-26T00:14:29.576Z,99.90
2023-02-26T00:17:43.534Z,99.90
2023-02-26T00:20:48.416Z,99.90
2023-02-26T00:23:51.705Z,99.90
2023-02-26T00:26:57.615Z,99.90
2023-02-26T00:30:01.144Z,99.90
2023-02-26T00:33:05.513Z,99.90
2023-02-26T00:36:21.536Z,99.90
2023-02-26T00:39:38.304Z,99.90
2023-02-26T00:42:41.785Z,99.90
2023-02-26T00:45:52.379Z,99.90
2023-02-26T00:49:01.630Z,99.90
2023-02-26T00:52:11.572Z,99.90
2023-02-26T00:55:14.529Z,99.90
2023-02-26T00:58:17.473Z,99.90
2023-02-26T01:01:20.434Z,99.90
2023-02-26T01:04:24.717Z,99.90
2023-02-26T01:07:30.889Z,99.90
2023-02-26T01:10:34.721Z,99.90
2023-02-26T01:13:38.020Z,99.90
2023-02-26T01:16:49.705Z,99.90
2023-02-26T01:19:56.560Z,99.90
2023-02-26T01:23:04.835Z,99.90
2023-02-26T01:26:13.391Z,99.90
2023-02-26T01:29:17.212Z,99.90
2023-02-26T01:32:28.140Z,99.90
2023-02-26T01:35:41.652Z,99.90
2023-02-26T01:38:53.642Z,99.90
2023-02-26T01:42:01.439Z,99.90
2023-02-26T01:45:11.338Z,99.90
2023-02-26T01:48:26.665Z,99.90
2023-02-26T01:51:47.942Z,99.90
2023-02-26T01:54:53.371Z,99.90
2023-02-26T01:57:58.574Z,99.90
2023-02-26T02:01:02.414Z,99.90
2023-02-26T02:04:07.236Z,99.90
2023-02-26T02:07:10.513Z,99.90
2023-02-26T02:10:15.146Z,99.90
2023-02-26T02:13:36.372Z,99.90
2023-02-26T02:16:48.625Z,99.90
2023-02-26T02:20:38.210Z,99.90
2023-02-26T02:23:45.759Z,99.90
2023-02-26T02:27:01.479Z,99.90
2023-02-26T02:30:16.048Z,99.90
2023-02-26T02:33:23.512Z,99.90
2023-02-26T02:36:32.272Z,99.90
2023-02-26T02:39:39.764Z,99.90
2023-02-26T02:42:46.948Z,99.90
2023-02-26T02:45:53.975Z,99.90
2023-02-26T02:49:02.638Z,99.90
2023-02-26T02:52:13.918Z,99.90
2023-02-26T02:55:20.761Z,99.90
2023-02-26T02:58:27.254Z,99.90
2023-02-26T03:01:31.705Z,99.90
2023-02-26T03:04:36.309Z,99.90
2023-02-26T03:07:47.700Z,99.90
2023-02-26T03:10:50.782Z,99.90
2023-02-26T03:13:54.563Z,99.90
2023-02-26T03:17:21.411Z,99.90
2023-02-26T03:20:31.740Z,99.90
2023-02-26T03:23:41.019Z,99.90
2023-02-26T03:26:57.157Z,99.90
2023-02-26T03:30:06.247Z,99.90
2023-02-26T03:33:18.941Z,99.90
2023-02-26T03:36:27.316Z,99.90
2023-02-26T03:39:35.460Z,99.90
2023-02-26T03:42:44.944Z,99.90
2023-02-26T03:45:51.004Z,99.90
2023-02-26T03:48:56.174Z,99.90
2023-02-26T03:52:01.933Z,99.90
2023-02-26T03:55:09.648Z,99.90
2023-02-26T03:58:12.719Z,99.90
2023-02-26T04:01:20.231Z,99.90
2023-02-26T04:04:29.221Z,99.90
2023-02-26T04:07:33.875Z,99.90
2023-02-26T04:10:42.456Z,99.90
2023-02-26T04:13:45.767Z,99.90
2023-02-26T04:16:48.800Z,99.90
2023-02-26T04:19:51.788Z,99.90
2023-02-26T04:22:56.083Z,99.90
2023-02-26T04:25:59.041Z,99.90
2023-02-26T04:29:01.964Z,99.90
2023-02-26T04:32:05.036Z,99.90
2023-02-26T04:35:08.731Z,99.90
2023-02-26T04:38:13.046Z,99.90
2023-02-26T04:41:15.954Z,99.90
2023-02-26T04:44:18.884Z,99.90
2023-02-26T04:47:21.917Z,99.90
2023-02-26T04:50:24.860Z,99.90
2023-02-26T04:53:29.198Z,99.90
2023-02-26T04:56:32.535Z,99.90
2023-02-26T04:59:35.516Z,99.90
2023-02-26T05:02:38.478Z,99.90
2023-02-26T05:05:41.504Z,99.90
2023-02-26T05:08:45.857Z,99.90
2023-02-26T05:11:48.987Z,99.90
2023-02-26T05:14:52.032Z,99.90
2023-02-26T05:17:54.981Z,99.90
2023-02-26T05:20:59.005Z,99.90
2023-02-26T05:24:03.312Z,99.90
2023-02-26T05:27:06.626Z,99.90
2023-02-26T05:30:12.036Z,99.90
2023-02-26T05:33:15.000Z,99.90
2023-02-26T05:36:17.978Z,99.90
2023-02-26T05:39:22.338Z,99.90
2023-02-26T05:42:26.356Z,99.90
2023-02-26T05:45:29.349Z,99.90
2023-02-26T05:48:32.410Z,99.90
2023-02-26T05:51:35.355Z,99.90
2023-02-26T05:54:39.629Z,99.90
2023-02-26T05:57:42.548Z,99.90
2023-02-26T06:00:45.965Z,99.90
2023-02-26T06:03:48.881Z,99.90
2023-02-26T06:06:51.807Z,99.90
2023-02-26T06:09:56.096Z,99.90
2023-02-26T06:12:59.069Z,99.90
2023-02-26T06:16:02.048Z,99.90
2023-02-26T06:19:05.059Z,99.90
2023-02-26T06:22:08.062Z,99.90
2023-02-26T06:25:12.997Z,99.90
2023-02-26T06:28:16.024Z,99.90
2023-02-26T06:31:19.105Z,99.90
2023-02-26T06:34:22.635Z,99.90
2023-02-26T06:37:25.580Z,99.90
2023-02-26T06:40:30.582Z,99.90
2023-02-26T06:43:33.590Z,99.90
2023-02-26T06:46:36.609Z,99.90
2023-02-26T06:49:39.570Z,99.90
2023-02-26T06:52:42.572Z,99.90
2023-02-26T06:55:48.117Z,99.90
2023-02-26T06:58:51.073Z,99.90
2023-02-26T07:01:54.008Z,99.90
2023-02-26T07:04:56.946Z,99.90
2023-02-26T07:07:59.848Z,99.90
2023-02-26T07:11:04.276Z,99.90
2023-02-26T07:14:07.229Z,99.90
2023-02-26T07:17:10.546Z,99.90
2023-02-26T07:20:14.375Z,99.90
2023-02-26T07:23:17.501Z,99.90
2023-02-26T07:26:21.916Z,99.90
2023-02-26T07:29:24.852Z,99.90
2023-02-26T07:32:28.149Z,99.90
2023-02-26T07:35:31.079Z,99.90
2023-02-26T07:38:34.027Z,99.90
2023-02-26T07:41:38.329Z,99.90
2023-02-26T07:44:41.295Z,99.90
2023-02-26T07:47:44.195Z,99.90
2023-02-26T07:50:47.465Z,99.90
2023-02-26T07:53:50.408Z,99.90
2023-02-26T07:56:54.938Z,99.90
2023-02-26T07:59:57.861Z,99.90
2023-02-26T08:03:00.828Z,99.90
2023-02-26T08:06:04.903Z,99.90
2023-02-26T08:09:08.024Z,99.90
2023-02-26T08:12:12.656Z,99.90
2023-02-26T08:15:15.627Z,99.90
2023-02-26T08:18:18.589Z,99.90
2023-02-26T08:21:21.652Z,99.90
2023-02-26T08:24:24.717Z,99.90
2023-02-26T08:27:28.998Z,99.90
2023-02-26T08:30:32.209Z,99.90
2023-02-26T08:33:35.590Z,99.90
2023-02-26T08:36:38.602Z,99.90
2023-02-26T08:39:42.051Z,99.90
2023-02-26T08:42:46.320Z,99.90
2023-02-26T08:45:49.700Z,99.90
2023-02-26T08:48:53.202Z,99.90
2023-02-26T08:51:56.185Z,99.90
2023-02-26T08:54:59.146Z,99.90
2023-02-26T08:58:03.435Z,99.90
2023-02-26T09:01:06.437Z,99.90
2023-02-26T09:04:09.679Z,99.90
2023-02-26T09:07:13.413Z,99.90
2023-02-26T09:10:18.933Z,99.90
2023-02-26T09:13:23.261Z,99.90
2023-02-26T09:16:26.699Z,99.90
2023-02-26T09:19:29.936Z,99.90
2023-02-26T09:22:32.980Z,99.90
2023-02-26T09:25:35.956Z,99.90
2023-02-26T09:28:40.320Z,99.90
2023-02-26T09:31:43.432Z,99.90
2023-02-26T09:34:46.499Z,99.90
2023-02-26T09:37:51.436Z,99.90
2023-02-26T09:40:58.454Z,99.90
2023-02-26T09:44:25.343Z,99.90
2023-02-26T09:47:39.229Z,99.90
2023-02-26T09:50:45.706Z,99.90
2023-02-26T09:53:52.107Z,99.90
2023-02-26T09:56:59.300Z,99.90
2023-02-26T10:00:08.148Z,99.90
2023-02-26T10:03:23.518Z,99.90
2023-02-26T10:06:29.556Z,99.90
2023-02-26T10:09:46.775Z,99.90
2023-02-26T10:12:52.291Z,99.90
2023-02-26T10:16:01.738Z,99.90
2023-02-26T10:19:08.532Z,99.90
2023-02-26T10:22:18.128Z,99.90
2023-02-26T10:25:25.601Z,99.90
2023-02-26T10:28:42.625Z,99.90
2023-02-26T10:32:00.793Z,99.90
2023-02-26T10:35:09.042Z,99.90
2023-02-26T10:38:14.737Z,99.90
2023-02-26T10:41:21.938Z,99.90
2023-02-26T10:44:31.017Z,99.90
2023-02-26T10:47:44.579Z,99.90
2023-02-26T10:50:51.087Z,99.90
2023-02-26T10:53:59.322Z,99.90
2023-02-26T10:57:02.359Z,99.90
2023-02-26T11:00:12.461Z,99.90
2023-02-26T11:03:21.425Z,99.90
2023-02-26T11:06:28.501Z,99.90
2023-02-26T11:09:34.962Z,99.90
2023-02-26T11:12:38.304Z,99.90
2023-02-26T11:15:42.343Z,99.90
2023-02-26T11:18:51.480Z,99.90
2023-02-26T11:21:55.782Z,99.90
2023-02-26T11:24:59.892Z,99.90
2023-02-26T11:28:05.917Z,99.20
2023-02-26T11:31:11.785Z,98.60
2023-02-26T11:34:16.213Z,98.70
2023-02-26T11:37:21.925Z,98.20
2023-02-26T11:40:33.401Z,99.00
2023-02-26T11:43:44.098Z,99.90
2023-02-26T11:46:53.004Z,99.90
2023-02-26T11:50:11.709Z,99.90
2023-02-26T11:53:21.386Z,99.90
2023-02-26T11:56:28.139Z,99.90
2023-02-26T11:59:33.518Z,99.90
2023-02-26T12:02:41.157Z,99.90
2023-02-26T12:05:45.536Z,99.90
2023-02-26T12:08:50.105Z,99.90
2023-02-26T12:12:10.218Z,99.90
2023-02-26T12:15:24.707Z,99.90
2023-02-26T12:18:41.829Z,99.90
2023-02-26T12:22:03.653Z,99.90
2023-02-26T12:25:37.168Z,99.90
2023-02-26T12:28:53.499Z,99.90
2023-02-26T12:32:19.092Z,98.90
2023-02-26T12:35:42.633Z,96.90
2023-02-26T12:38:57.592Z,97.40
2023-02-26T12:42:18.037Z,99.50
2023-02-26T12:45:43.150Z,99.90
2023-02-26T12:49:05.155Z,99.50
2023-02-26T12:52:40.756Z,97.00
2023-02-26T12:55:56.341Z,97.10
2023-02-26T12:59:10.907Z,97.00
2023-02-26T13:02:47.927Z,98.20
2023-02-26T13:06:05.853Z,99.40
2023-02-26T13:09:20.968Z,99.90
2023-02-26T13:12:35.537Z,99.90
2023-02-26T13:15:52.994Z,99.90
2023-02-26T13:19:04.765Z,99.90
2023-02-26T13:22:17.266Z,99.90
2023-02-26T13:25:26.412Z,99.90
2023-02-26T13:28:39.313Z,99.90
2023-02-26T13:31:46.663Z,99.90
2023-02-26T13:34:54.257Z,99.90
2023-02-26T13:37:59.678Z,99.90
2023-02-26T13:41:10.826Z,99.90
2023-02-26T13:44:28.094Z,99.90
2023-02-26T13:47:56.431Z,99.90
2023-02-26T13:51:08.867Z,99.90
2023-02-26T13:54:33.782Z,99.90
2023-02-26T13:57:43.813Z,99.90
2023-02-26T14:00:58.811Z,99.90
2023-02-26T14:04:23.140Z,99.90
2023-02-26T14:07:48.546Z,99.90
2023-02-26T14:11:00.135Z,99.90
2023-02-26T14:14:33.957Z,99.90
2023-02-26T14:17:48.520Z,99.90
2023-02-26T14:20:52.436Z,99.90
2023-02-26T14:23:59.084Z,99.90
2023-02-26T14:27:22.479Z,99.90
2023-02-26T14:30:30.933Z,99.90
2023-02-26T14:33:43.452Z,99.90
2023-02-26T14:36:53.863Z,99.90
2023-02-26T14:40:00.531Z,99.90
2023-02-26T14:43:06.594Z,99.90
2023-02-26T14:46:11.342Z,99.90
2023-02-26T14:49:23.178Z,99.90
2023-02-26T14:52:52.156Z,99.90
2023-02-26T14:56:08.901Z,99.90
2023-02-26T14:59:26.868Z,99.90
2023-02-26T15:02:33.348Z,99.90
2023-02-26T15:05:53.483Z,99.90
2023-02-26T15:09:08.510Z,99.90
2023-02-26T15:12:22.400Z,99.90
2023-02-26T15:15:34.941Z,99.90
2023-02-26T15:18:55.906Z,99.90
2023-02-26T15:22:19.159Z,99.90
2023-02-26T15:25:29.182Z,99.90
2023-02-26T15:28:36.635Z,99.90
2023-02-26T15:31:43.857Z,99.90
2023-02-26T15:34:49.033Z,99.90
2023-02-26T15:37:57.649Z,99.90
2023-02-26T15:41:04.105Z,99.90
2023-02-26T15:44:10.673Z,99.90
2023-02-26T15:47:16.851Z,99.90
2023-02-26T15:50:20.023Z,99.90
2023-02-26T15:53:30.210Z,99.90
2023-02-26T15:56:37.770Z,99.90
2023-02-26T15:59:44.549Z,99.90
2023-02-26T16:02:50.661Z,99.90
2023-02-26T16:05:55.788Z,99.90
2023-02-26T16:09:00.488Z,99.90
2023-02-26T16:12:08.161Z,99.90
2023-02-26T16:15:16.649Z,99.90
2023-02-26T16:18:26.272Z,99.90
2023-02-26T16:21:33.116Z,99.90
2023-02-26T16:24:37.515Z,99.90
2023-02-26T16:27:42.793Z,99.90
2023-02-26T16:30:51.029Z,99.90
2023-02-26T16:33:59.528Z,99.90
2023-02-26T16:37:13.864Z,99.90
2023-02-26T16:40:26.391Z,99.90
2023-02-26T16:43:49.252Z,99.90
2023-02-26T16:46:52.810Z,99.90
2023-02-26T16:49:55.871Z,99.90
2023-02-26T16:53:02.772Z,99.90
2023-02-26T16:56:07.518Z,99.90
2023-02-26T16:59:16.083Z,99.90
2023-02-26T17:02:22.035Z,99.90
2023-02-26T17:05:28.744Z,99.90
2023-02-26T17:08:34.391Z,99.90
2023-02-26T17:11:43.438Z,99.90
2023-02-26T17:14:53.100Z,99.90
2023-02-26T17:17:57.971Z,99.90
2023-02-26T17:21:04.193Z,99.90
2023-02-26T17:24:07.855Z,99.90
2023-02-26T17:27:17.399Z,99.90
2023-02-26T17:30:24.100Z,99.90
2023-02-26T17:33:28.046Z,99.90
2023-02-26T17:36:31.027Z,99.90
2023-02-26T17:39:34.156Z,99.90
2023-02-26T17:42:38.560Z,99.90
2023-02-26T17:45:42.241Z,99.90
2023-02-26T17:48:45.196Z,99.90
2023-02-26T17:51:48.159Z,99.90
2023-02-26T17:54:52.442Z,99.90
2023-02-26T17:57:57.350Z,99.90
2023-02-26T18:01:01.744Z,99.90
2023-02-26T18:04:05.228Z,99.90
2023-02-26T18:07:08.222Z,99.90
2023-02-26T18:10:18.062Z,99.90
2023-02-26T18:13:22.980Z,99.90
2023-02-26T18:16:33.177Z,99.90
2023-02-26T18:19:36.242Z,99.90
2023-02-26T18:22:39.257Z,99.90
2023-02-26T18:25:44.392Z,99.90
2023-02-26T18:28:49.680Z,99.90
2023-02-26T18:31:52.786Z,99.90
2023-02-26T18:34:56.031Z,99.90
2023-02-26T18:37:59.124Z,99.90
2023-02-26T18:41:02.647Z,99.90
2023-02-26T18:44:06.955Z,99.90
2023-02-26T18:47:11.310Z,99.90
2023-02-26T18:50:16.872Z,99.90
2023-02-26T18:53:23.373Z,99.90
2023-02-26T18:56:26.393Z,99.90
2023-02-26T18:59:30.871Z,99.90
2023-02-26T19:02:34.301Z,99.90
2023-02-26T19:05:37.703Z,99.90
2023-02-26T19:08:40.641Z,99.90
2023-02-26T19:11:43.611Z,99.90
2023-02-26T19:14:48.439Z,99.90
2023-02-26T19:17:52.180Z,99.90
2023-02-26T19:20:55.295Z,99.90
2023-02-26T19:23:58.491Z,99.90
2023-02-26T19:27:01.432Z,99.90
2023-02-26T19:30:07.458Z,99.90
2023-02-26T19:33:10.458Z,99.90
2023-02-26T19:36:13.413Z,99.90
2023-02-26T19:39:18.449Z,99.90
2023-02-26T19:42:21.877Z,99.90
2023-02-26T19:45:26.147Z,99.90
2023-02-26T19:48:29.099Z,99.90
2023-02-26T19:51:32.172Z,99.90
2023-02-26T19:54:35.249Z,99.90
2023-02-26T19:57:38.239Z,99.90
2023-02-26T20:00:42.564Z,99.90
2023-02-26T20:03:47.397Z,99.90
2023-02-26T20:06:51.973Z,99.90
2023-02-26T20:09:54.941Z,99.90
2023-02-26T20:12:58.299Z,99.90
2023-02-26T20:16:03.503Z,99.90
2023-02-26T20:19:06.480Z,99.90
2023-02-26T20:22:09.442Z,99.90
2023-02-26T20:25:12.498Z,99.90
2023-02-26T20:28:15.462Z,99.90
2023-02-26T20:31:20.224Z,99.90
2023-02-26T20:34:23.250Z,99.90
2023-02-26T20:37:26.339Z,99.90
2023-02-26T20:40:29.383Z,99.90
2023-02-26T20:43:32.531Z,99.90
2023-02-26T20:46:38.875Z,99.90
2023-02-26T20:49:41.925Z,99.90
2023-02-26T20:52:44.886Z,99.90
2023-02-26T20:55:47.906Z,99.90
2023-02-26T20:58:51.078Z,99.90
2023-02-26T21:01:57.117Z,99.90
2023-02-26T21:05:00.098Z,99.90
2023-02-26T21:08:04.139Z,99.90
2023-02-26T21:11:08.062Z,99.90
2023-02-26T21:14:11.616Z,99.90
2023-02-26T21:17:15.932Z,99.90
2023-02-26T21:20:18.867Z,99.90
2023-02-26T21:23:21.839Z,99.90
2023-02-26T21:26:24.972Z,99.90
2023-02-26T21:29:27.937Z,99.90
2023-02-26T21:32:32.420Z,99.90
2023-02-26T21:35:35.700Z,99.90
2023-02-26T21:38:38.675Z,99.90
2023-02-26T21:41:41.741Z,99.90
2023-02-26T21:44:44.736Z,99.90
2023-02-26T21:47:48.988Z,99.90
2023-02-26T21:50:52.062Z,99.90
2023-02-26T21:53:55.000Z,99.90
2023-02-26T21:56:59.252Z,99.90
2023-02-26T22:00:02.166Z,99.90
2023-02-26T22:03:06.505Z,99.90
2023-02-26T22:06:09.489Z,99.90
2023-02-26T22:09:12.495Z,99.90
2023-02-26T22:12:15.589Z,99.90
2023-02-26T22:15:18.605Z,99.90
2023-02-26T22:18:22.872Z,99.90
2023-02-26T22:21:26.308Z,99.90
2023-02-26T22:24:29.438Z,99.90
2023-02-26T22:27:32.587Z,99.90
2023-02-26T22:30:35.799Z,99.90
2023-02-26T22:33:40.456Z,99.90
2023-02-26T22:36:43.558Z,99.90
2023-02-26T22:39:46.460Z,99.90
2023-02-26T22:42:49.427Z,99.90
2023-02-26T22:45:52.384Z,99.90
2023-02-26T22:48:57.083Z,99.90
2023-02-26T22:52:00.007Z,99.90
2023-02-26T22:55:03.001Z,99.90
2023-02-26T22:58:05.957Z,99.90
2023-02-26T23:01:09.583Z,99.90
2023-02-26T23:04:14.031Z,99.90
2023-02-26T23:07:17.196Z,99.90
2023-02-26T23:10:21.486Z,99.90
2023-02-26T23:13:25.241Z,99.90
2023-02-26T23:16:28.174Z,99.90
2023-02-26T23:19:32.547Z,99.90
2023-02-26T23:22:35.472Z,99.90
2023-02-26T23:25:38.398Z,99.90
2023-02-26T23:28:41.365Z,99.90
2023-02-26T23:31:44.441Z,99.90
2023-02-26T23:34:48.737Z,99.90
2023-02-26T23:37:51.685Z,99.90
2023-02-26T23:40:56.611Z,99.90
2023-02-26T23:43:59.517Z,99.90
2023-02-26T23:47:02.449Z,99.90
2023-02-26T23:50:08.046Z,99.90
2023-02-26T23:53:11.031Z,99.90
2023-02-26T23:56:13.949Z,99.90
2023-02-26T23:59:17.866Z,99.90
